sensor_id;sensor_type;location;lat;lon;timestamp;temperature;humidity
54409;DHT22;40315;48.620;9.828;2023-07-13T00:14:52;20.40;99.90
54409;DHT22;40315;48.620;9.828;2023-07-13T00:17:22;20.40;99.90
54409;DHT22;40315;48.620;9.828;2023-07-13T00:19:48;20.40;99.90
54409;DHT22;40315;48.620;9.828;2023-07-13T00:22:16;20.30;99.90
54409;DHT22;40315;48.620;9.828;2023-07-13T00:24:44;20.20;99.90
54409;DHT22;40315;48.620;9.828;2023-07-13T00:27:11;20.20;99.90
54409;DHT22;40315;48.620;9.828;2023-07-13T00:29:39;20.20;99.90
54409;DHT22;40315;48.620;9.828;2023-07-13T00:32:10;20.10;99.90
54409;DHT22;40315;48.620;9.828;2023-07-13T00:34:38;20.10;99.90
54409;DHT22;40315;48.620;9.828;2023-07-13T00:37:07;20.10;99.90
54409;DHT22;40315;48.620;9.828;2023-07-13T00:39:36;20.00;99.90
54409;DHT22;40315;48.620;9.828;2023-07-13T00:42:07;20.10;99.90
54409;DHT22;40315;48.620;9.828;2023-07-13T00:44:34;20.00;99.90
54409;DHT22;40315;48.620;9.828;2023-07-13T00:47:01;20.10;99.90
54409;DHT22;40315;48.620;9.828;2023-07-13T00:49:31;20.10;99.90
54409;DHT22;40315;48.620;9.828;2023-07-13T00:52:01;20.00;99.90
54409;DHT22;40315;48.620;9.828;2023-07-13T00:54:31;19.90;99.90
54409;DHT22;40315;48.620;9.828;2023-07-13T00:57:03;19.90;99.90
54409;DHT22;40315;48.620;9.828;2023-07-13T00:59:31;19.90;99.90
54409;DHT22;40315;48.620;9.828;2023-07-13T01:02:05;19.80;99.90
54409;DHT22;40315;48.620;9.828;2023-07-13T01:04:36;19.80;99.90
54409;DHT22;40315;48.620;9.828;2023-07-13T01:07:04;19.70;99.90
54409;DHT22;40315;48.620;9.828;2023-07-13T01:12:13;19.60;99.90
54409;DHT22;40315;48.620;9.828;2023-07-13T01:14:42;19.50;99.90
54409;DHT22;40315;48.620;9.828;2023-07-13T01:17:10;19.50;99.90
54409;DHT22;40315;48.620;9.828;2023-07-13T01:19:41;19.50;99.90
54409;DHT22;40315;48.620;9.828;2023-07-13T01:22:14;19.50;99.90
54409;DHT22;40315;48.620;9.828;2023-07-13T01:24:43;19.40;99.90
54409;DHT22;40315;48.620;9.828;2023-07-13T01:27:13;19.40;99.90
54409;DHT22;40315;48.620;9.828;2023-07-13T01:29:42;19.30;99.90
54409;DHT22;40315;48.620;9.828;2023-07-13T01:32:11;19.30;99.90
54409;DHT22;40315;48.620;9.828;2023-07-13T01:34:38;19.30;99.90
54409;DHT22;40315;48.620;9.828;2023-07-13T01:37:08;19.20;99.90
54409;DHT22;40315;48.620;9.828;2023-07-13T01:39:36;19.20;99.90
54409;DHT22;40315;48.620;9.828;2023-07-13T01:42:03;19.20;99.90
54409;DHT22;40315;48.620;9.828;2023-07-13T01:44:30;20.70;99.90
54409;DHT22;40315;48.620;9.828;2023-07-13T01:46:58;19.10;99.90
54409;DHT22;40315;48.620;9.828;2023-07-13T19:06:09;23.70;81.70
54409;DHT22;40315;48.620;9.828;2023-07-13T19:08:39;23.70;81.70
54409;DHT22;40315;48.620;9.828;2023-07-13T19:11:12;23.70;82.50
54409;DHT22;40315;48.620;9.828;2023-07-13T19:13:40;23.70;83.00
54409;DHT22;40315;48.620;9.828;2023-07-13T19:16:08;23.40;81.10
54409;DHT22;40315;48.620;9.828;2023-07-13T19:18:36;23.10;80.90
54409;DHT22;40315;48.620;9.828;2023-07-13T19:21:07;23.00;82.70
54409;DHT22;40315;48.620;9.828;2023-07-13T19:23:39;22.90;84.10
54409;DHT22;40315;48.620;9.828;2023-07-13T19:26:17;22.90;85.30
54409;DHT22;40315;48.620;9.828;2023-07-13T19:28:45;22.70;87.00
54409;DHT22;40315;48.620;9.828;2023-07-13T19:31:18;22.40;88.70
54409;DHT22;40315;48.620;9.828;2023-07-13T19:33:48;22.20;89.20
54409;DHT22;40315;48.620;9.828;2023-07-13T19:36:18;22.10;90.30
54409;DHT22;40315;48.620;9.828;2023-07-13T19:38:51;22.00;90.50
54409;DHT22;40315;48.620;9.828;2023-07-13T19:41:20;21.80;90.90
54409;DHT22;40315;48.620;9.828;2023-07-13T19:43:48;21.80;91.40
54409;DHT22;40315;48.620;9.828;2023-07-13T19:46:20;21.70;91.50
54409;DHT22;40315;48.620;9.828;2023-07-13T19:48:52;21.60;91.70
54409;DHT22;40315;48.620;9.828;2023-07-13T19:51:20;21.70;91.60
54409;DHT22;40315;48.620;9.828;2023-07-13T19:53:48;21.70;91.60
54409;DHT22;40315;48.620;9.828;2023-07-13T19:56:18;21.50;91.90
54409;DHT22;40315;48.620;9.828;2023-07-13T19:58:45;21.40;92.20
54409;DHT22;40315;48.620;9.828;2023-07-13T20:01:14;21.40;92.40
54409;DHT22;40315;48.620;9.828;2023-07-13T20:03:43;21.30;93.00
54409;DHT22;40315;48.620;9.828;2023-07-13T20:06:21;21.20;93.10
54409;DHT22;40315;48.620;9.828;2023-07-13T20:08:50;21.30;93.00
54409;DHT22;40315;48.620;9.828;2023-07-13T20:11:19;21.30;93.30
54409;DHT22;40315;48.620;9.828;2023-07-13T20:13:48;21.20;93.60
54409;DHT22;40315;48.620;9.828;2023-07-13T20:16:15;21.20;93.60
54409;DHT22;40315;48.620;9.828;2023-07-13T20:18:44;21.10;93.70
54409;DHT22;40315;48.620;9.828;2023-07-13T20:21:13;21.20;93.60
54409;DHT22;40315;48.620;9.828;2023-07-13T20:23:41;21.10;93.80
54409;DHT22;40315;48.620;9.828;2023-07-13T20:26:09;20.90;94.00
54409;DHT22;40315;48.620;9.828;2023-07-13T20:28:40;20.90;93.90
54409;DHT22;40315;48.620;9.828;2023-07-13T20:31:12;20.90;94.30
54409;DHT22;40315;48.620;9.828;2023-07-13T20:33:40;20.80;94.40
54409;DHT22;40315;48.620;9.828;2023-07-13T20:36:11;20.70;94.70
54409;DHT22;40315;48.620;9.828;2023-07-13T20:38:43;20.60;94.70
54409;DHT22;40315;48.620;9.828;2023-07-13T20:41:12;20.70;94.70
54409;DHT22;40315;48.620;9.828;2023-07-13T20:43:43;20.70;94.70
54409;DHT22;40315;48.620;9.828;2023-07-13T20:46:15;20.80;95.00
54409;DHT22;40315;48.620;9.828;2023-07-13T20:48:44;20.60;95.10
54409;DHT22;40315;48.620;9.828;2023-07-13T20:51:16;20.40;95.50
54409;DHT22;40315;48.620;9.828;2023-07-13T20:53:46;20.40;95.50
54409;DHT22;40315;48.620;9.828;2023-07-13T20:56:14;20.40;95.90
54409;DHT22;40315;48.620;9.828;2023-07-13T20:58:44;20.20;96.20
54409;DHT22;40315;48.620;9.828;2023-07-13T21:01:15;20.30;96.00
54409;DHT22;40315;48.620;9.828;2023-07-13T21:03:46;20.40;96.10
54409;DHT22;40315;48.620;9.828;2023-07-13T21:06:16;20.10;96.70
54409;DHT22;40315;48.620;9.828;2023-07-13T21:08:45;19.90;96.80
54409;DHT22;40315;48.620;9.828;2023-07-13T21:11:14;19.80;97.10
54409;DHT22;40315;48.620;9.828;2023-07-13T21:13:43;19.70;97.30
54409;DHT22;40315;48.620;9.828;2023-07-13T21:16:17;19.60;97.60
54409;DHT22;40315;48.620;9.828;2023-07-13T21:18:50;19.40;97.60
54409;DHT22;40315;48.620;9.828;2023-07-13T21:21:19;19.40;97.70
54409;DHT22;40315;48.620;9.828;2023-07-13T21:23:50;19.60;97.60
54409;DHT22;40315;48.620;9.828;2023-07-13T21:26:18;19.50;98.00
54409;DHT22;40315;48.620;9.828;2023-07-13T21:28:49;19.50;97.90
54409;DHT22;40315;48.620;9.828;2023-07-13T21:31:21;19.70;97.50
54409;DHT22;40315;48.620;9.828;2023-07-13T21:33:49;19.60;97.70
54409;DHT22;40315;48.620;9.828;2023-07-13T21:36:17;19.60;97.70
54409;DHT22;40315;48.620;9.828;2023-07-13T21:38:45;19.40;98.60
54409;DHT22;40315;48.620;9.828;2023-07-13T21:41:26;19.20;98.90
54409;DHT22;40315;48.620;9.828;2023-07-13T21:43:56;19.10;99.50
54409;DHT22;40315;48.620;9.828;2023-07-13T21:46:27;18.90;99.90
54409;DHT22;40315;48.620;9.828;2023-07-13T21:48:56;18.80;99.90
54409;DHT22;40315;48.620;9.828;2023-07-13T21:51:27;18.60;99.90
54409;DHT22;40315;48.620;9.828;2023-07-13T21:53:55;18.80;99.80
54409;DHT22;40315;48.620;9.828;2023-07-13T21:56:23;18.80;99.60
54409;DHT22;40315;48.620;9.828;2023-07-13T21:58:51;18.70;99.80
54409;DHT22;40315;48.620;9.828;2023-07-13T22:01:22;18.90;99.50
54409;DHT22;40315;48.620;9.828;2023-07-13T22:03:53;18.80;99.90
54409;DHT22;40315;48.620;9.828;2023-07-13T22:06:23;20.40;99.90
54409;DHT22;40315;48.620;9.828;2023-07-13T22:08:53;18.40;99.90
54409;DHT22;40315;48.620;9.828;2023-07-13T22:11:24;18.30;99.90
54409;DHT22;40315;48.620;9.828;2023-07-13T22:13:52;18.30;99.90
54409;DHT22;40315;48.620;9.828;2023-07-13T22:16:22;18.30;99.90
54409;DHT22;40315;48.620;9.828;2023-07-13T22:18:52;18.20;99.90
54409;DHT22;40315;48.620;9.828;2023-07-13T22:21:19;18.20;99.90
54409;DHT22;40315;48.620;9.828;2023-07-13T22:23:47;18.10;99.90
54409;DHT22;40315;48.620;9.828;2023-07-13T22:26:22;18.10;99.90
54409;DHT22;40315;48.620;9.828;2023-07-13T22:28:53;18.00;99.90
54409;DHT22;40315;48.620;9.828;2023-07-13T22:31:26;17.90;99.90
54409;DHT22;40315;48.620;9.828;2023-07-13T22:33:53;17.90;99.90
54409;DHT22;40315;48.620;9.828;2023-07-13T22:36:21;18.10;99.90
54409;DHT22;40315;48.620;9.828;2023-07-13T22:38:49;18.30;99.90
54409;DHT22;40315;48.620;9.828;2023-07-13T22:41:17;18.30;99.90
54409;DHT22;40315;48.620;9.828;2023-07-13T22:43:45;18.10;99.90
54409;DHT22;40315;48.620;9.828;2023-07-13T22:46:14;18.10;99.90
54409;DHT22;40315;48.620;9.828;2023-07-13T22:48:56;18.20;99.90
54409;DHT22;40315;48.620;9.828;2023-07-13T22:51:24;18.10;99.90
54409;DHT22;40315;48.620;9.828;2023-07-13T22:53:54;18.00;99.90
54409;DHT22;40315;48.620;9.828;2023-07-13T22:56:25;18.00;99.90
54409;DHT22;40315;48.620;9.828;2023-07-13T22:58:52;18.10;99.90
54409;DHT22;40315;48.620;9.828;2023-07-13T23:01:21;17.90;99.90
54409;DHT22;40315;48.620;9.828;2023-07-13T23:03:55;17.70;99.90
54409;DHT22;40315;48.620;9.828;2023-07-13T23:06:26;17.70;99.90
54409;DHT22;40315;48.620;9.828;2023-07-13T23:08:54;17.60;99.90
54409;DHT22;40315;48.620;9.828;2023-07-13T23:11:23;17.60;99.90
54409;DHT22;40315;48.620;9.828;2023-07-13T23:13:53;17.60;99.90
54409;DHT22;40315;48.620;9.828;2023-07-13T23:16:23;17.60;99.90
54409;DHT22;40315;48.620;9.828;2023-07-13T23:18:53;17.50;99.90
54409;DHT22;40315;48.620;9.828;2023-07-13T23:21:21;17.40;99.90
54409;DHT22;40315;48.620;9.828;2023-07-13T23:23:48;17.20;99.90
54409;DHT22;40315;48.620;9.828;2023-07-13T23:26:17;17.20;99.90
54409;DHT22;40315;48.620;9.828;2023-07-13T23:28:47;17.10;99.90
54409;DHT22;40315;48.620;9.828;2023-07-13T23:31:18;17.10;99.90
54409;DHT22;40315;48.620;9.828;2023-07-13T23:33:46;17.10;99.90
54409;DHT22;40315;48.620;9.828;2023-07-13T23:36:19;17.30;99.90
54409;DHT22;40315;48.620;9.828;2023-07-13T23:38:46;17.30;99.90
54409;DHT22;40315;48.620;9.828;2023-07-13T23:41:15;17.40;99.90
54409;DHT22;40315;48.620;9.828;2023-07-13T23:43:43;17.30;99.90
54409;DHT22;40315;48.620;9.828;2023-07-13T23:46:22;17.10;99.90
54409;DHT22;40315;48.620;9.828;2023-07-13T23:48:53;17.00;99.90
54409;DHT22;40315;48.620;9.828;2023-07-13T23:51:25;17.00;99.90
54409;DHT22;40315;48.620;9.828;2023-07-13T23:53:52;17.20;99.90
54409;DHT22;40315;48.620;9.828;2023-07-13T23:56:21;17.10;99.90
54409;DHT22;40315;48.620;9.828;2023-07-13T23:58:52;17.20;99.90
